Time;durP1;ratioP1;P1;durP2;ratioP2;P2;SDS_P1;SDS_P2;PMS_P1;PMS_P2;Temp;Humidity;BMP_temperature;BMP_pressure;BME280_temperature;BME280_humidity;BME280_pressure;Samples;Min_cycle;Max_cycle;Signal;HPM_P1;HPM_P2
2022/05/28 00:03:57;;;;;;;8.65;2.33;;;;;;;11.16;46.40;100421.91;10429737;28;20169;-78
2022/05/28 00:09:00;;;;;;;8.93;2.00;;;;;;;11.02;46.67;100420.03;10433606;28;20056;-78
2022/05/28 00:14:04;;;;;;;11.20;2.47;;;;;;;11.02;46.80;100409.53;10428667;28;20076;-78
2022/05/28 00:19:06;;;;;;;14.02;2.40;;;;;;;10.87;47.33;100409.50;10431035;28;20059;-78
2022/05/28 00:24:08;;;;;;;10.32;2.38;;;;;;;10.73;47.75;100407.63;10430717;28;20560;-77
2022/05/28 00:29:10;;;;;;;9.15;2.17;;;;;;;10.68;47.81;100401.81;10427124;28;20415;-79
2022/05/28 00:34:12;;;;;;;12.05;2.38;;;;;;;10.55;48.44;100397.28;10426797;28;20061;-78
2022/05/28 00:39:14;;;;;;;14.93;2.63;;;;;;;10.46;48.32;100383.75;10429307;28;20052;-78
2022/05/28 00:44:18;;;;;;;9.40;2.38;;;;;;;10.46;48.74;100377.72;10429400;28;20079;-78
2022/05/28 00:49:29;;;;;;;9.32;2.40;;;;;;;10.37;49.08;100384.25;10441511;28;20049;-77
2022/05/28 00:54:40;;;;;;;7.95;2.10;;;;;;;10.24;49.50;100374.50;10441711;28;20076;-78
2022/05/28 00:59:43;;;;;;;11.23;2.47;;;;;;;10.24;48.96;100375.34;10432865;28;20881;-78
2022/05/28 01:04:59;;;;;;;7.85;2.33;;;;;;;10.24;49.28;100369.25;10428336;28;20088;-78
2022/05/28 01:10:24;;;;;;;9.68;2.40;;;;;;;10.12;49.22;100368.13;10445794;28;20860;-78
2022/05/28 01:15:36;;;;;;;11.07;2.17;;;;;;;10.10;49.63;100369.13;10429722;28;20056;-78
2022/05/28 01:20:47;;;;;;;9.10;2.30;;;;;;;10.14;50.11;100375.88;10430195;28;20049;-78
2022/05/28 01:26:01;;;;;;;10.50;2.63;;;;;;;10.13;49.95;100379.44;10429544;28;20163;-78
2022/05/28 01:31:05;;;;;;;9.10;2.38;;;;;;;9.97;50.02;100373.28;10427189;28;20073;-78
2022/05/28 01:36:11;;;;;;;9.23;2.72;;;;;;;9.88;50.30;100368.50;10428167;28;20761;-78
2022/05/28 01:41:15;;;;;;;8.68;2.55;;;;;;;9.79;50.53;100369.81;10430159;28;20049;-78
2022/05/28 01:46:20;;;;;;;9.07;2.42;;;;;;;9.72;50.74;100360.59;10437542;28;20494;-78
2022/05/28 01:51:27;;;;;;;6.78;2.05;;;;;;;9.64;51.36;100352.28;10437460;28;20051;-78
2022/05/28 01:56:29;;;;;;;10.20;2.58;;;;;;;9.64;51.35;100341.81;10434763;28;20110;-78
2022/05/28 02:01:33;;;;;;;10.80;2.55;;;;;;;9.62;51.61;100352.34;10436392;28;20077;-78
2022/05/28 02:06:40;;;;;;;11.60;2.28;;;;;;;9.52;51.88;100343.25;10438224;28;20063;-78
2022/05/28 02:12:15;;;;;;;9.45;2.20;;;;;;;9.40;52.82;100343.03;10440324;28;20084;-78
2022/05/28 02:17:53;;;;;;;11.57;2.90;;;;;;;9.34;52.62;100346.75;10437226;28;20126;-78
2022/05/28 02:23:33;;;;;;;10.05;2.53;;;;;;;9.22;53.27;100339.50;10440561;28;20091;-78
2022/05/28 02:28:36;;;;;;;9.38;2.50;;;;;;;9.18;52.91;100345.81;10437671;28;20119;-78
2022/05/28 02:33:40;;;;;;;13.48;2.25;;;;;;;9.23;53.25;100333.41;10437621;28;20129;-78
2022/05/28 02:38:42;;;;;;;8.40;2.20;;;;;;;9.18;53.10;100329.31;10441227;28;20084;-78
2022/05/28 02:43:46;;;;;;;9.15;2.20;;;;;;;9.16;53.26;100323.28;10439997;28;20049;-78
2022/05/28 02:48:49;;;;;;;13.88;2.30;;;;;;;9.03;53.48;100322.22;10439174;28;20061;-78
2022/05/28 02:53:53;;;;;;;14.90;2.67;;;;;;;8.99;53.78;100318.91;10440923;28;20107;-78
2022/05/28 02:58:56;;;;;;;8.35;2.13;;;;;;;8.99;53.73;100326.72;10439920;28;20056;-78
2022/05/28 03:04:09;;;;;;;9.48;2.33;;;;;;;8.91;54.30;100322.78;10438481;28;20084;-78
2022/05/28 03:09:11;;;;;;;12.63;2.60;;;;;;;8.90;53.97;100318.47;10436444;28;20083;-78
2022/05/28 03:14:13;;;;;;;13.20;2.90;;;;;;;8.93;53.84;100321.81;10434160;28;20119;-78
2022/05/28 03:19:20;;;;;;;11.30;2.17;;;;;;;8.96;54.23;100321.66;10435227;28;20053;-78
2022/05/28 03:24:23;;;;;;;12.23;2.53;;;;;;;9.08;53.51;100328.03;10432264;28;20162;-78
2022/05/28 03:29:26;;;;;;;13.32;2.72;;;;;;;9.05;53.68;100329.06;10432542;28;20531;-78
2022/05/28 03:34:28;;;;;;;9.88;2.45;;;;;;;9.07;53.62;100324.59;10449527;28;20526;-78
2022/05/28 03:39:29;;;;;;;11.02;2.30;;;;;;;9.00;53.88;100319.72;10433586;28;20049;-78
2022/05/28 03:44:31;;;;;;;11.23;2.33;;;;;;;9.06;53.94;100330.72;10429081;28;21164;-78
2022/05/28 03:49:38;;;;;;;11.00;2.22;;;;;;;9.18;53.99;100319.72;10434825;28;20048;-78
2022/05/28 03:54:43;;;;;;;9.77;2.42;;;;;;;9.27;53.54;100321.88;10433740;28;20060;-78
2022/05/28 03:59:45;;;;;;;6.32;2.20;;;;;;;9.46;53.14;100325.28;10431280;28;20045;-78
2022/05/28 04:04:47;;;;;;;8.43;2.20;;;;;;;9.68;52.59;100321.66;10432305;28;20111;-78
2022/05/28 04:09:49;;;;;;;8.88;2.10;;;;;;;10.01;52.13;100331.22;10431595;28;20048;-78
2022/05/28 04:14:51;;;;;;;8.13;2.00;;;;;;;10.39;51.41;100326.66;10430871;28;20060;-78
2022/05/28 04:19:52;;;;;;;10.88;2.42;;;;;;;10.31;51.48;100323.59;10427190;28;20068;-78
2022/05/28 04:24:56;;;;;;;13.98;2.90;;;;;;;10.23;51.50;100331.84;10432168;28;20469;-78
2022/05/28 04:30:05;;;;;;;9.95;2.22;;;;;;;10.93;50.23;100325.47;10431887;28;20092;-78
2022/05/28 04:35:09;;;;;;;8.63;2.60;;;;;;;10.61;50.47;100323.72;10432223;28;20080;-78
2022/05/28 04:40:11;;;;;;;11.93;2.50;;;;;;;10.52;50.54;100331.13;10430276;28;20049;-78
2022/05/28 04:45:14;;;;;;;11.65;2.75;;;;;;;11.87;48.47;100331.41;10430026;28;20084;-78
2022/05/28 04:50:16;;;;;;;8.00;2.47;;;;;;;15.79;41.40;100320.69;10429524;28;20175;-78
2022/05/28 04:55:18;;;;;;;7.90;2.40;;;;;;;18.11;37.36;100305.47;10432641;28;20057;-78
2022/05/28 05:00:24;;;;;;;8.00;2.40;;;;;;;19.86;33.66;100295.94;10431871;28;20099;-78
2022/05/28 05:05:27;;;;;;;10.70;2.72;;;;;;;17.43;36.85;100311.22;10427995;28;20267;-78
2022/05/28 05:10:29;;;;;;;7.72;2.28;;;;;;;18.77;35.06;100304.97;10430372;28;20095;-78
2022/05/28 05:15:31;;;;;;;8.05;2.20;;;;;;;17.88;35.60;100301.28;10432189;28;20080;-78
2022/05/28 05:20:33;;;;;;;10.05;2.50;;;;;;;15.95;38.54;100318.59;10440829;28;20098;-78
2022/05/28 05:25:35;;;;;;;8.55;2.38;;;;;;;16.04;38.64;100320.50;10440856;28;20080;-78
2022/05/28 05:30:37;;;;;;;7.80;2.10;;;;;;;16.22;37.98;100320.91;10439146;28;20522;-78
2022/05/28 05:35:39;;;;;;;10.60;2.55;;;;;;;15.60;39.46;100330.06;10433028;28;20083;-78
2022/05/28 05:40:42;;;;;;;7.25;2.17;;;;;;;14.98;40.48;100327.56;10437555;28;20103;-78
2022/05/28 05:45:54;;;;;;;11.68;2.50;;;;;;;14.75;41.36;100325.72;10438867;28;20057;-78
2022/05/28 05:51:03;;;;;;;9.95;2.50;;;;;;;14.99;41.54;100333.66;10438569;28;20049;-79
2022/05/28 05:56:07;;;;;;;8.82;2.45;;;;;;;15.21;41.18;100334.66;10439704;28;20544;-78
2022/05/28 06:01:09;;;;;;;10.98;2.85;;;;;;;15.21;41.36;100325.91;10433733;28;20052;-78
2022/05/28 06:06:14;;;;;;;10.48;2.70;;;;;;;15.08;41.58;100333.84;10435988;28;20059;-78
2022/05/28 06:11:19;;;;;;;10.77;2.53;;;;;;;15.18;41.54;100323.50;10434366;28;20041;-78
2022/05/28 06:16:21;;;;;;;9.27;2.90;;;;;;;15.03;41.84;100332.50;10430486;28;20056;-78
2022/05/28 06:21:27;;;;;;;10.40;2.65;;;;;;;15.18;41.76;100334.88;10427966;28;20049;-77
2022/05/28 06:26:31;;;;;;;12.57;2.70;;;;;;;15.84;41.17;100329.09;10423240;28;20059;-78
2022/05/28 06:31:33;;;;;;;12.25;2.42;;;;;;;15.64;41.16;100337.66;10423480;28;20542;-78
2022/05/28 06:36:35;;;;;;;12.23;2.70;;;;;;;15.95;40.60;100333.56;10422656;28;20049;-78
2022/05/28 06:41:37;;;;;;;11.00;2.72;;;;;;;15.94;41.02;100330.06;10420642;28;20132;-78
2022/05/28 06:46:39;;;;;;;11.48;2.80;;;;;;;16.19;41.14;100318.50;10421718;28;20132;-77
2022/05/28 06:51:41;;;;;;;10.77;2.63;;;;;;;16.81;40.08;100321.56;10420849;28;20049;-77
2022/05/28 06:56:43;;;;;;;10.90;2.90;;;;;;;16.79;40.07;100318.19;10422849;28;20164;-78
2022/05/28 07:01:44;;;;;;;10.43;3.03;;;;;;;16.62;40.33;100321.31;10430859;28;20140;-77
2022/05/28 07:06:47;;;;;;;12.02;2.97;;;;;;;16.33;40.37;100325.34;10433079;28;20068;-77
2022/05/28 07:11:49;;;;;;;14.55;3.00;;;;;;;16.11;41.10;100332.28;10431264;28;20872;-78
2022/05/28 07:16:52;;;;;;;12.07;3.00;;;;;;;15.89;41.15;100328.75;10426562;28;20689;-77
2022/05/28 07:21:54;;;;;;;13.50;2.67;;;;;;;16.04;41.58;100325.78;10431731;28;20053;-77
2022/05/28 07:26:56;;;;;;;11.98;3.00;;;;;;;15.95;41.54;100329.13;10430023;28;20626;-77
2022/05/28 07:31:57;;;;;;;7.93;2.47;;;;;;;16.13;41.45;100325.09;10432207;28;20163;-78
2022/05/28 07:36:59;;;;;;;11.85;2.83;;;;;;;16.10;41.18;100338.50;10429408;28;20601;-78
2022/05/28 07:42:05;;;;;;;9.80;2.70;;;;;;;15.93;42.11;100328.41;10430011;28;20102;-78
2022/05/28 07:47:07;;;;;;;10.43;2.63;;;;;;;16.13;41.99;100330.38;10430746;28;20060;-76
2022/05/28 07:52:10;;;;;;;10.23;2.50;;;;;;;16.70;41.14;100313.63;10427380;28;20135;-75
2022/05/28 07:57:11;;;;;;;10.40;2.45;;;;;;;16.63;41.22;100317.72;10426100;28;20155;-75
2022/05/28 08:02:13;;;;;;;8.70;1.92;;;;;;;16.27;40.63;100312.63;10425650;28;20076;-75
2022/05/28 08:07:15;;;;;;;5.70;1.85;;;;;;;17.71;38.54;100290.31;10420067;28;21258;-75
2022/05/28 08:12:17;;;;;;;6.47;1.90;;;;;;;18.95;36.11;100303.34;10419548;28;20147;-75
2022/05/28 08:17:19;;;;;;;11.68;2.30;;;;;;;19.88;35.17;100287.81;10424069;28;20087;-75
2022/05/28 08:27:42;;;;;;;6.32;1.80;;;;;;;18.53;36.69;100296.50;10426738;28;20064;-75
2022/05/28 08:32:44;;;;;;;5.95;1.70;;;;;;;19.45;35.50;100302.34;10422732;28;20132;-75
2022/05/28 08:37:49;;;;;;;5.47;1.85;;;;;;;20.81;32.96;100288.63;10424461;28;20111;-75
2022/05/28 08:42:51;;;;;;;9.73;1.92;;;;;;;20.38;32.76;100286.56;10428023;28;20490;-75
2022/05/28 08:47:55;;;;;;;7.10;1.88;;;;;;;19.89;32.69;100294.78;10425177;28;20070;-75
2022/05/28 08:53:06;;;;;;;7.90;1.85;;;;;;;19.82;32.47;100286.59;10428561;28;20052;-75
2022/05/28 08:58:12;;;;;;;6.13;1.70;;;;;;;21.14;30.94;100280.06;10439186;28;20156;-75
2022/05/28 09:03:19;;;;;;;8.27;2.15;;;;;;;21.07;30.64;100279.81;10438456;28;20060;-75
2022/05/28 09:08:27;;;;;;;5.95;1.83;;;;;;;21.61;28.86;100262.06;10432318;28;20049;-75
2022/05/28 09:13:39;;;;;;;5.10;1.60;;;;;;;21.59;27.89;100280.00;10434613;28;20140;-75
2022/05/28 09:18:41;;;;;;;6.60;1.60;;;;;;;21.64;28.88;100261.78;10430822;28;20089;-75
2022/05/28 09:23:58;;;;;;;8.80;1.80;;;;;;;20.83;29.23;100276.03;10437163;28;20540;-75
2022/05/28 09:29:09;;;;;;;6.57;1.52;;;;;;;22.07;27.40;100269.75;10438652;28;20647;-75
2022/05/28 09:34:27;;;;;;;5.88;1.60;;;;;;;22.40;27.21;100258.28;10438316;28;20053;-75
2022/05/28 09:39:47;;;;;;;3.83;1.60;;;;;;;22.45;27.06;100255.16;10438339;28;20146;-75
2022/05/28 09:45:09;;;;;;;5.20;1.63;;;;;;;22.13;26.42;100263.78;10436672;28;20621;-75
2022/05/28 09:50:19;;;;;;;4.60;1.30;;;;;;;21.15;27.68;100264.94;10433042;28;20075;-76
2022/05/28 09:55:23;;;;;;;5.45;1.60;;;;;;;21.23;27.82;100247.25;10429354;28;20086;-76
2022/05/28 10:00:26;;;;;;;5.85;1.80;;;;;;;21.01;27.60;100245.84;10429977;28;20142;-74
2022/05/28 10:05:57;;;;;;;7.35;1.95;;;;;;;21.08;25.44;100251.41;10427415;28;20084;-76
2022/05/28 10:11:05;;;;;;;5.93;1.80;;;;;;;20.65;27.51;100252.09;10419437;28;20081;-75
2022/05/28 10:16:07;;;;;;;6.03;1.70;;;;;;;20.61;28.04;100256.03;10420509;28;20135;-75
2022/05/28 10:21:38;;;;;;;5.50;1.40;;;;;;;20.43;28.20;100247.13;10423047;28;20080;-75
2022/05/28 10:26:48;;;;;;;6.97;1.70;;;;;;;21.26;27.01;100244.25;10427110;28;20076;-75
2022/05/28 10:38:24;;;;;;;3.65;1.58;;;;;;;21.30;25.37;100234.13;10425120;28;20049;-75
2022/05/28 10:43:36;;;;;;;5.07;1.58;;;;;;;21.47;26.15;100228.84;10431195;28;20085;-75
2022/05/28 10:49:02;;;;;;;5.50;1.63;;;;;;;21.10;24.93;100220.16;10429214;28;20494;-75
2022/05/28 10:54:33;;;;;;;4.93;1.67;;;;;;;20.63;25.98;100221.31;10428047;28;20187;-75
2022/05/28 11:00:12;;;;;;;4.68;1.42;;;;;;;20.57;26.25;100217.41;10415704;28;20108;-75
2022/05/28 11:05:24;;;;;;;7.88;1.70;;;;;;;20.88;26.16;100209.97;10431771;28;20995;-75
2022/05/28 11:17:03;;;;;;;5.78;1.52;;;;;;;20.17;25.91;100203.63;10429677;28;20049;-75
2022/05/28 11:22:14;;;;;;;3.55;1.40;;;;;;;20.25;26.62;100204.53;10427301;28;20076;-75
2022/05/28 11:27:33;;;;;;;5.80;1.48;;;;;;;20.43;25.85;100193.16;10430825;28;20065;-75
2022/05/28 11:33:00;;;;;;;4.90;1.48;;;;;;;19.67;26.33;100207.50;10441848;28;20121;-75
2022/05/28 11:38:11;;;;;;;4.93;1.50;;;;;;;19.66;27.11;100200.53;10425650;28;20111;-75
2022/05/28 11:43:29;;;;;;;5.22;1.30;;;;;;;19.41;26.14;100202.81;10428317;28;20089;-75
2022/05/28 11:54:10;;;;;;;5.03;1.40;;;;;;;19.31;28.00;100185.22;10429905;28;20063;-74
2022/05/28 11:59:19;;;;;;;4.22;1.40;;;;;;;19.69;26.22;100181.66;10429715;28;20640;-74
2022/05/28 12:04:39;;;;;;;4.78;1.40;;;;;;;20.03;25.41;100169.59;10433083;28;20052;-75
2022/05/28 12:09:46;;;;;;;4.57;1.40;;;;;;;20.27;26.21;100175.22;10425502;28;20080;-74
2022/05/28 12:15:06;;;;;;;5.50;1.40;;;;;;;20.18;26.20;100160.13;10425149;28;20136;-75
2022/05/28 12:20:10;;;;;;;;;;;;;;;20.24;25.74;100151.59;10427484;28;20055;-75
2022/05/28 12:25:12;;;;;;;8.25;1.70;;;;;;;20.07;26.48;100161.16;10427844;28;19927;-75
2022/05/28 12:30:46;;;;;;;4.43;1.40;;;;;;;20.57;25.89;100155.44;10426551;28;20118;-75
2022/05/28 12:36:10;;;;;;;3.35;1.23;;;;;;;20.23;25.04;100155.25;10411039;28;20063;-75
2022/05/28 12:41:24;;;;;;;5.63;1.63;;;;;;;20.06;25.63;100151.53;10429185;28;20107;-75
2022/05/28 12:46:50;;;;;;;4.53;1.40;;;;;;;20.19;25.03;100135.28;10424722;28;20057;-74
2022/05/28 12:52:37;;;;;;;4.18;1.23;;;;;;;19.81;25.07;100127.44;10425230;28;20048;-74
2022/05/28 12:57:39;;;;;;;4.00;1.70;;;;;;;19.68;27.28;100129.59;10241279;28;20137;-75
2022/05/28 13:02:46;;;;;;;3.05;1.20;;;;;;;20.10;23.52;100122.88;10381078;28;20499;-75
2022/05/28 13:07:56;;;;;;;4.13;1.80;;;;;;;20.77;23.27;100117.13;10428796;28;20521;-75
2022/05/28 13:13:35;;;;;;;3.93;1.37;;;;;;;21.06;23.58;100113.25;10425388;28;20552;-75
2022/05/28 13:18:49;;;;;;;5.78;1.40;;;;;;;21.34;22.39;100113.16;10426696;28;20186;-75
2022/05/28 13:24:02;;;;;;;4.25;1.20;;;;;;;20.67;23.08;100105.75;10426770;28;20138;-75
2022/05/28 13:29:15;;;;;;;5.88;1.30;;;;;;;20.46;23.89;100092.72;10424746;28;20554;-75
2022/05/28 13:34:24;;;;;;;6.40;1.30;;;;;;;20.40;25.30;100103.94;10425098;28;20163;-76
2022/05/28 13:39:26;;;;;;;4.73;1.40;;;;;;;20.18;25.09;100091.09;10426975;28;21173;-75
2022/05/28 13:44:30;;;;;;;5.93;1.30;;;;;;;19.24;25.22;100102.75;10434497;28;20080;-76
2022/05/28 13:49:37;;;;;;;4.03;1.20;;;;;;;19.16;26.17;100105.28;10432264;28;20053;-75
2022/05/28 13:54:39;;;;;;;3.58;1.15;;;;;;;19.11;23.64;100094.28;10432881;28;20498;-75
2022/05/28 13:59:54;;;;;;;3.42;1.17;;;;;;;19.59;22.71;100087.97;10432637;28;20583;-75
2022/05/28 14:04:57;;;;;;;3.38;1.15;;;;;;;19.93;22.89;100075.88;10432543;28;20099;-75
2022/05/28 14:10:06;;;;;;;8.45;1.42;;;;;;;19.82;22.76;100076.91;10433982;28;20052;-75
2022/05/28 14:15:16;;;;;;;3.83;1.20;;;;;;;19.74;23.32;100079.44;10436674;28;20112;-75
2022/05/28 14:20:26;;;;;;;3.53;1.50;;;;;;;19.71;24.16;100082.34;10438781;28;20135;-75
2022/05/28 14:25:35;;;;;;;5.95;1.40;;;;;;;19.70;24.30;100071.91;10433031;28;20052;-75
2022/05/28 14:30:38;;;;;;;4.85;1.40;;;;;;;19.48;24.34;100069.59;10434522;28;20057;-75
2022/05/28 14:35:43;;;;;;;7.93;1.55;;;;;;;20.14;24.33;100058.69;10433695;28;20049;-75
2022/05/28 14:41:20;;;;;;;6.93;1.35;;;;;;;20.61;22.94;100067.34;10432132;28;20483;-75
2022/05/28 14:46:34;;;;;;;4.45;1.10;;;;;;;20.69;22.02;100053.28;10431224;28;20057;-75
2022/05/28 14:51:41;;;;;;;4.05;1.20;;;;;;;20.88;22.06;100051.31;10432686;28;20406;-75
2022/05/28 14:56:43;;;;;;;4.63;1.40;;;;;;;20.99;22.29;100043.06;10428364;28;20088;-75
2022/05/28 15:01:45;;;;;;;3.13;1.23;;;;;;;20.82;22.36;100045.75;10433653;28;20138;-75
2022/05/28 15:06:58;;;;;;;3.67;1.20;;;;;;;20.69;23.25;100030.19;10429880;28;20084;-75
2022/05/28 15:12:07;;;;;;;4.10;1.38;;;;;;;20.09;23.36;100045.03;10426748;28;20625;-76
2022/05/28 15:17:09;;;;;;;3.65;1.30;;;;;;;19.69;24.53;100030.41;10430494;28;20118;-76
2022/05/28 15:22:30;;;;;;;4.47;1.40;;;;;;;19.24;24.69;100030.31;10431039;28;20123;-76
2022/05/28 15:27:32;;;;;;;;;;;;;;;18.77;24.95;100023.28;10428287;28;20057;-75
2022/05/28 15:32:37;;;;;;;5.03;1.30;;;;;;;19.31;25.21;100019.00;10427314;28;20021;-76
2022/05/28 15:37:53;;;;;;;3.88;1.27;;;;;;;19.51;25.22;100014.44;10420804;28;20142;-76
2022/05/28 15:42:55;;;;;;;5.72;1.38;;;;;;;18.95;25.17;100009.13;10421662;28;20076;-75
2022/05/28 15:48:00;;;;;;;4.35;1.52;;;;;;;18.63;26.11;100017.44;10425181;28;20057;-74
2022/05/28 15:53:01;;;;;;;5.32;1.60;;;;;;;18.61;26.03;100018.53;10419805;28;20140;-74
2022/05/28 15:58:22;;;;;;;4.57;1.40;;;;;;;19.04;24.90;100004.81;10421833;28;20115;-74
2022/05/28 16:03:24;;;;;;;7.13;1.40;;;;;;;19.15;25.41;99994.91;10424421;28;20120;-75
2022/05/28 16:13:31;;;;;;;6.22;1.60;;;;;;;19.36;26.58;99998.16;10424749;28;20049;-74
2022/05/28 16:18:33;;;;;;;4.35;1.27;;;;;;;19.48;26.62;99999.66;10421775;28;20049;-74
2022/05/28 16:23:41;;;;;;;7.82;1.60;;;;;;;19.59;26.05;99993.31;10420040;28;20048;-74
2022/05/28 16:28:44;;;;;;;4.78;1.52;;;;;;;19.48;26.45;99982.06;10424687;28;20179;-75
2022/05/28 16:33:46;;;;;;;6.43;1.70;;;;;;;19.46;26.37;99975.09;10423909;28;20045;-75
2022/05/28 16:38:48;;;;;;;4.70;1.50;;;;;;;19.29;25.99;99975.88;10425057;28;20084;-75
2022/05/28 16:43:50;;;;;;;4.97;1.52;;;;;;;19.27;26.88;99961.94;10423918;28;20052;-75
2022/05/28 16:48:53;;;;;;;5.78;1.60;;;;;;;19.24;25.44;99964.84;10422301;28;20116;-74
2022/05/28 16:53:55;;;;;;;5.85;1.88;;;;;;;19.25;25.07;99949.78;10419625;28;20520;-75
2022/05/28 16:58:57;;;;;;;8.95;1.60;;;;;;;19.06;25.32;99958.66;10421575;28;20645;-75
2022/05/28 17:03:59;;;;;;;5.93;1.58;;;;;;;18.80;26.35;99962.88;10417526;28;21202;-75
2022/05/28 17:09:01;;;;;;;3.40;1.45;;;;;;;18.79;26.33;99955.91;10419172;28;20057;-75
2022/05/28 17:14:04;;;;;;;4.53;1.45;;;;;;;18.76;25.91;99953.53;10427129;28;20041;-75
2022/05/28 17:19:06;;;;;;;4.50;1.42;;;;;;;18.80;26.65;99957.59;10432068;28;20186;-75
2022/05/28 17:24:22;;;;;;;5.55;1.50;;;;;;;18.76;26.31;99948.25;10432862;28;20199;-74
2022/05/28 17:29:24;;;;;;;3.75;1.30;;;;;;;18.73;26.74;99947.72;10430986;28;20140;-74
2022/05/28 17:34:27;;;;;;;5.18;1.58;;;;;;;18.56;26.12;99941.31;10428656;28;20136;-75
2022/05/28 17:39:28;;;;;;;5.07;1.65;;;;;;;18.48;26.04;99942.00;10431442;28;20550;-74
2022/05/28 17:44:30;;;;;;;4.65;1.55;;;;;;;18.33;25.79;99939.94;10426020;28;20114;-75
2022/05/28 17:49:32;;;;;;;7.53;1.80;;;;;;;18.22;26.38;99937.47;10427969;28;20080;-75
2022/05/28 17:54:35;;;;;;;5.93;1.58;;;;;;;18.04;27.04;99936.41;10428246;28;20053;-75
2022/05/28 17:59:37;;;;;;;5.60;1.85;;;;;;;17.74;27.33;99945.31;10429677;28;20572;-75
2022/05/28 18:04:38;;;;;;;7.68;1.75;;;;;;;17.54;27.86;99948.88;10430892;28;20123;-74
2022/05/28 18:09:43;;;;;;;8.23;1.52;;;;;;;17.39;29.13;99948.44;10430470;28;20108;-75
2022/05/28 18:14:47;;;;;;;7.05;1.70;;;;;;;17.33;28.83;99954.25;10435073;28;20068;-81
2022/05/28 18:19:51;;;;;;;8.18;1.60;;;;;;;17.16;29.32;99946.09;10435450;28;20057;-81
2022/05/28 18:24:53;;;;;;;10.25;1.80;;;;;;;16.91;29.88;99937.63;10436821;28;20088;-80
2022/05/28 18:29:55;;;;;;;8.02;1.73;;;;;;;16.76;30.56;99938.94;10435773;28;20162;-80
2022/05/28 18:34:59;;;;;;;5.60;1.73;;;;;;;16.58;30.78;99935.22;10437243;28;20084;-79
2022/05/28 18:40:05;;;;;;;6.63;2.13;;;;;;;16.41;30.93;99940.19;10438073;28;20461;-80
2022/05/28 18:45:09;;;;;;;7.03;2.22;;;;;;;16.24;30.77;99938.97;10440609;28;20469;-80
2022/05/28 18:50:12;;;;;;;8.13;2.20;;;;;;;16.03;30.61;99938.09;10434927;28;20049;-80
2022/05/28 18:55:14;;;;;;;11.50;3.50;;;;;;;15.89;30.96;99941.88;10437529;28;21002;-81
2022/05/28 19:00:16;;;;;;;7.03;1.95;;;;;;;15.79;32.02;99940.09;10435816;28;20437;-81
2022/05/28 19:05:21;;;;;;;5.55;1.60;;;;;;;15.62;31.02;99936.19;10432875;28;20595;-81
2022/05/28 19:10:23;;;;;;;5.10;1.70;;;;;;;15.46;31.81;99953.31;10436467;28;20510;-81
2022/05/28 19:15:25;;;;;;;6.55;1.80;;;;;;;15.29;31.93;99946.72;10438685;28;20144;-81
2022/05/28 19:20:34;;;;;;;6.22;1.90;;;;;;;15.18;32.43;99947.59;10434374;28;20135;-81
2022/05/28 19:31:05;;;;;;;6.38;1.90;;;;;;;14.86;34.03;99941.34;10436950;28;20111;-83
2022/05/28 19:36:18;;;;;;;6.93;2.10;;;;;;;14.58;35.13;99950.53;10437424;28;20136;-82
2022/05/28 19:41:31;;;;;;;9.02;2.80;;;;;;;14.37;35.35;99952.09;10434843;28;20077;-83
2022/05/28 19:46:34;;;;;;;8.57;2.50;;;;;;;14.11;35.62;99954.97;10432940;28;20210;-82
2022/05/28 19:51:39;;;;;;;13.32;2.42;;;;;;;13.83;36.77;99961.44;10435906;28;20494;-81
2022/05/28 19:56:44;;;;;;;6.55;2.08;;;;;;;13.66;37.93;99959.16;10430685;28;20140;-81
2022/05/28 20:01:48;;;;;;;11.20;2.70;;;;;;;13.58;38.58;99964.13;10450769;28;20053;-82
2022/05/28 20:06:50;;;;;;;8.65;2.53;;;;;;;13.36;39.33;99971.84;10425771;28;20667;-81
2022/05/28 20:11:52;;;;;;;9.13;2.35;;;;;;;13.17;39.59;99967.03;10425155;28;20144;-82
2022/05/28 20:16:57;;;;;;;8.52;2.60;;;;;;;13.00;39.95;99974.41;10425348;28;20375;-82
2022/05/28 20:22:03;;;;;;;7.03;2.63;;;;;;;12.88;40.04;99971.66;10404197;28;20048;-82
2022/05/28 20:27:08;;;;;;;8.18;2.70;;;;;;;12.78;40.84;99959.31;10435887;28;20057;-82
2022/05/28 20:32:12;;;;;;;7.70;3.05;;;;;;;12.74;40.74;99971.78;10435242;28;20048;-81
2022/05/28 20:37:19;;;;;;;7.68;2.58;;;;;;;12.70;41.12;99969.47;10436107;28;20110;-82
2022/05/28 20:42:21;;;;;;;9.88;3.10;;;;;;;12.56;41.66;99965.16;10434129;28;20115;-82
2022/05/28 20:47:23;;;;;;;9.98;2.85;;;;;;;12.42;41.86;99967.00;10436294;28;20149;-81
2022/05/28 20:52:29;;;;;;;10.80;2.53;;;;;;;12.26;42.21;99968.94;10438527;28;20107;-82
2022/05/28 20:57:31;;;;;;;4.78;2.00;;;;;;;12.15;42.08;99959.16;10436182;28;20081;-81
2022/05/28 21:02:37;;;;;;;8.32;2.40;;;;;;;11.85;42.55;99961.16;10438065;28;20460;-81
2022/05/28 21:07:41;;;;;;;8.57;2.63;;;;;;;11.74;42.87;99969.72;10434781;28;20493;-82
2022/05/28 21:12:43;;;;;;;9.70;2.60;;;;;;;11.70;43.36;99972.63;10434668;28;20465;-82
2022/05/28 21:17:49;;;;;;;9.43;2.35;;;;;;;11.66;43.82;99973.75;10436874;28;20053;-82
2022/05/28 21:22:55;;;;;;;10.00;2.38;;;;;;;11.56;43.92;99970.03;10429174;28;20144;-81
2022/05/28 21:33:24;;;;;;;10.43;2.60;;;;;;;11.50;44.83;99984.34;10435346;28;20099;-81
2022/05/28 21:38:26;;;;;;;11.20;3.08;;;;;;;11.45;44.96;99980.34;10432888;28;20049;-81
2022/05/28 21:43:31;;;;;;;7.20;2.92;;;;;;;11.20;45.88;99979.25;10432335;28;20049;-81
2022/05/28 21:48:38;;;;;;;7.18;2.60;;;;;;;11.04;46.72;99986.34;10434886;28;20087;-81
2022/05/28 21:53:48;;;;;;;10.98;2.75;;;;;;;10.92;46.65;99981.81;10434313;28;20061;-81
2022/05/28 21:58:51;;;;;;;10.73;2.50;;;;;;;10.82;46.14;99982.47;10433911;28;20140;-81
2022/05/28 22:03:55;;;;;;;10.82;2.63;;;;;;;10.66;46.77;99979.94;10441149;28;20936;-81
2022/05/28 22:09:03;;;;;;;6.43;2.22;;;;;;;10.48;46.82;99984.44;10440942;28;20060;-81
2022/05/28 22:14:07;;;;;;;6.97;2.40;;;;;;;10.47;46.87;99977.56;10442747;28;20150;-81
2022/05/28 22:19:16;;;;;;;6.15;2.22;;;;;;;10.37;47.41;99971.19;10439072;28;20455;-81
2022/05/28 22:24:17;;;;;;;7.10;2.25;;;;;;;10.07;47.41;99964.25;10430075;28;20130;-81
2022/05/28 22:29:20;;;;;;;9.57;2.42;;;;;;;10.07;47.69;99970.34;10429270;28;20562;-81
2022/05/28 22:34:25;;;;;;;9.38;3.17;;;;;;;10.03;47.86;99975.81;10431114;28;20114;-81
2022/05/28 22:39:26;;;;;;;7.95;2.67;;;;;;;9.99;48.22;99976.91;10427651;28;20049;-80
2022/05/28 22:49:59;;;;;;;8.02;2.42;;;;;;;9.91;49.32;99971.28;10438397;28;20087;-81
2022/05/28 22:55:01;;;;;;;7.82;2.63;;;;;;;9.82;49.91;99969.19;10439373;28;20051;-81
2022/05/28 23:00:06;;;;;;;7.25;2.50;;;;;;;9.69;50.25;99971.63;10437405;28;20053;-81
2022/05/28 23:05:12;;;;;;;8.38;2.92;;;;;;;9.53;50.49;99963.78;10442504;28;20059;-81
2022/05/28 23:10:16;;;;;;;7.38;2.40;;;;;;;9.30;50.67;99963.34;10441238;28;20057;-81
2022/05/28 23:15:20;;;;;;;8.93;2.33;;;;;;;9.27;51.19;99958.28;10440195;28;20134;-81
2022/05/28 23:20:27;;;;;;;9.30;2.70;;;;;;;9.33;51.67;99952.72;10438321;28;20056;-81
2022/05/28 23:30:51;;;;;;;8.32;2.80;;;;;;;9.24;51.38;99937.59;10437132;28;20536;-81
2022/05/28 23:35:55;;;;;;;7.65;2.38;;;;;;;8.94;51.81;99929.63;10437021;28;20466;-81
2022/05/28 23:40:58;;;;;;;9.77;3.00;;;;;;;8.74;51.92;99937.66;10438345;28;20049;-81
2022/05/28 23:46:04;;;;;;;5.60;2.25;;;;;;;8.67;52.19;99929.28;10436510;28;20510;-80
2022/05/28 23:51:08;;;;;;;8.48;2.63;;;;;;;8.67;52.75;99931.06;10435971;28;20418;-81
2022/05/28 23:56:15;;;;;;;8.63;2.70;;;;;;;8.63;52.50;99919.09;10431239;28;20682;-81
